createdAt,value
2022-10-23T00:01:55.651Z,11.32
2022-10-23T00:04:26.287Z,11.30
2022-10-23T00:06:53.285Z,11.22
2022-10-23T00:09:24.068Z,11.26
2022-10-23T00:11:52.463Z,11.24
2022-10-23T00:14:23.143Z,11.23
2022-10-23T00:16:50.574Z,11.23
2022-10-23T00:19:17.840Z,11.20
2022-10-23T00:21:44.996Z,11.23
2022-10-23T00:24:12.909Z,11.23
2022-10-23T00:26:40.625Z,11.24
2022-10-23T00:29:08.577Z,11.22
2022-10-23T00:31:36.100Z,11.23
2022-10-23T00:34:04.097Z,11.26
2022-10-23T00:36:31.161Z,11.24
2022-10-23T00:38:58.175Z,11.33
2022-10-23T00:41:29.627Z,11.35
2022-10-23T00:44:09.515Z,11.36
2022-10-23T00:46:38.295Z,11.35
2022-10-23T00:49:07.151Z,11.34
2022-10-23T00:51:40.906Z,11.34
2022-10-23T00:54:25.292Z,11.33
2022-10-23T00:56:59.239Z,11.36
2022-10-23T00:59:27.105Z,11.33
2022-10-23T01:01:54.538Z,11.38
2022-10-23T01:04:22.935Z,11.34
2022-10-23T01:07:07.859Z,11.24
2022-10-23T01:09:53.470Z,11.19
2022-10-23T01:12:36.295Z,11.13
2022-10-23T01:15:38.540Z,11.23
2022-10-23T01:18:13.271Z,11.18
2022-10-23T01:20:50.103Z,11.14
2022-10-23T01:23:44.718Z,11.08
2022-10-23T01:26:26.558Z,10.98
2022-10-23T01:29:03.746Z,11.03
2022-10-23T01:31:37.415Z,11.06
2022-10-23T01:34:13.609Z,11.01
2022-10-23T01:36:43.164Z,10.96
2022-10-23T01:39:21.519Z,10.97
2022-10-23T01:41:57.235Z,10.96
2022-10-23T01:44:49.214Z,11.04
2022-10-23T01:49:51.113Z,11.03
2022-10-23T01:52:19.852Z,11.01
2022-10-23T01:54:49.922Z,11.03
2022-10-23T01:57:20.751Z,10.99
2022-10-23T01:59:53.378Z,11.00
2022-10-23T02:02:22.835Z,10.96
2022-10-23T02:04:55.236Z,10.87
2022-10-23T02:07:22.824Z,10.87
2022-10-23T02:09:50.125Z,10.86
2022-10-23T02:12:41.668Z,10.85
2022-10-23T02:15:14.367Z,10.84
2022-10-23T02:18:03.129Z,10.85
2022-10-23T02:20:38.455Z,10.82
2022-10-23T02:23:25.556Z,10.72
2022-10-23T02:26:21.816Z,10.78
2022-10-23T02:28:54.960Z,10.77
2022-10-23T02:31:23.300Z,10.67
2022-10-23T02:33:50.633Z,10.69
2022-10-23T02:36:19.151Z,10.70
2022-10-23T02:38:46.459Z,10.70
2022-10-23T02:41:31.057Z,10.67
2022-10-23T02:44:09.670Z,10.70
2022-10-23T02:46:50.129Z,10.73
2022-10-23T02:49:49.070Z,10.68
2022-10-23T02:52:40.700Z,10.65
2022-10-23T02:55:17.578Z,10.61
2022-10-23T02:57:56.671Z,10.57
2022-10-23T03:00:24.654Z,10.51
2022-10-23T03:02:59.804Z,10.49
2022-10-23T03:05:35.567Z,10.42
2022-10-23T03:08:04.906Z,10.43
2022-10-23T03:10:31.890Z,10.45
2022-10-23T03:12:58.894Z,10.39
2022-10-23T03:15:25.875Z,10.37
2022-10-23T03:17:52.895Z,10.34
2022-10-23T03:20:19.984Z,10.39
2022-10-23T03:22:46.990Z,10.38
2022-10-23T03:25:14.303Z,10.37
2022-10-23T03:27:41.327Z,10.39
2022-10-23T03:30:08.994Z,10.42
2022-10-23T03:32:36.017Z,10.42
2022-10-23T03:35:03.453Z,10.43
2022-10-23T03:37:30.795Z,10.42
2022-10-23T03:39:57.795Z,10.45
2022-10-23T03:42:25.388Z,10.45
2022-10-23T03:44:52.424Z,10.45
2022-10-23T03:47:20.958Z,10.43
2022-10-23T03:49:47.986Z,10.38
2022-10-23T03:52:15.248Z,10.40
2022-10-23T03:54:42.299Z,10.38
2022-10-23T03:57:09.296Z,10.35
2022-10-23T03:59:36.332Z,10.35
2022-10-23T04:02:03.514Z,10.35
2022-10-23T04:04:30.852Z,10.34
2022-10-23T04:06:57.849Z,10.34
2022-10-23T04:09:25.022Z,10.34
2022-10-23T04:11:52.014Z,10.35
2022-10-23T04:14:18.977Z,10.28
2022-10-23T04:16:45.984Z,10.32
2022-10-23T04:19:13.061Z,10.36
2022-10-23T04:21:40.039Z,10.37
2022-10-23T04:24:07.276Z,10.38
2022-10-23T04:26:34.505Z,10.40
2022-10-23T04:29:01.544Z,10.40
2022-10-23T04:31:28.588Z,10.45
2022-10-23T04:33:55.785Z,10.44
2022-10-23T04:36:22.989Z,10.46
2022-10-23T04:38:50.237Z,10.37
2022-10-23T04:41:17.275Z,10.38
2022-10-23T04:43:44.291Z,10.32
2022-10-23T04:46:11.395Z,10.40
2022-10-23T04:48:41.662Z,10.42
2022-10-23T04:51:10.018Z,10.38
2022-10-23T04:53:38.823Z,10.40
2022-10-23T04:56:06.382Z,10.32
2022-10-23T04:58:33.387Z,10.42
2022-10-23T05:01:03.598Z,10.38
2022-10-23T05:03:33.917Z,10.44
2022-10-23T05:06:01.587Z,10.48
2022-10-23T05:08:29.045Z,10.49
2022-10-23T05:10:56.017Z,10.45
2022-10-23T05:13:23.774Z,10.43
2022-10-23T05:15:51.796Z,10.51
2022-10-23T05:18:31.531Z,10.51
2022-10-23T05:21:07.171Z,10.56
2022-10-23T05:23:37.210Z,10.57
2022-10-23T05:26:05.006Z,10.61
2022-10-23T05:28:32.181Z,10.65
2022-10-23T05:31:03.103Z,10.68
2022-10-23T05:33:32.718Z,10.67
2022-10-23T05:36:03.725Z,10.63
2022-10-23T05:38:33.570Z,10.70
2022-10-23T05:41:03.817Z,10.74
2022-10-23T05:43:33.684Z,10.74
2022-10-23T05:46:06.057Z,10.82
2022-10-23T05:48:35.382Z,10.86
2022-10-23T05:51:04.758Z,10.87
2022-10-23T05:53:32.004Z,10.86
2022-10-23T05:56:08.677Z,10.86
2022-10-23T05:58:36.269Z,10.99
2022-10-23T06:01:11.398Z,11.00
2022-10-23T06:03:39.398Z,10.99
2022-10-23T06:06:07.412Z,11.08
2022-10-23T06:08:35.153Z,11.13
2022-10-23T06:11:10.072Z,11.05
2022-10-23T06:13:39.493Z,11.13
2022-10-23T06:16:21.111Z,11.12
2022-10-23T06:18:48.517Z,11.16
2022-10-23T06:21:16.023Z,11.17
2022-10-23T06:23:44.785Z,11.23
2022-10-23T06:26:14.079Z,11.26
2022-10-23T06:28:41.935Z,11.24
2022-10-23T06:31:11.473Z,11.28
2022-10-23T06:33:39.123Z,11.31
2022-10-23T06:36:08.253Z,11.29
2022-10-23T06:38:37.599Z,11.31
2022-10-23T06:41:05.163Z,11.31
2022-10-23T06:43:32.160Z,11.37
2022-10-23T06:46:04.264Z,11.34
2022-10-23T06:48:32.269Z,11.37
2022-10-23T06:51:03.597Z,11.45
2022-10-23T06:53:31.675Z,11.47
2022-10-23T06:56:03.633Z,11.39
2022-10-23T06:58:32.019Z,11.38
2022-10-23T07:01:04.792Z,11.45
2022-10-23T07:03:32.463Z,11.48
2022-10-23T07:06:03.918Z,11.42
2022-10-23T07:08:34.053Z,11.47
2022-10-23T07:11:09.286Z,11.55
2022-10-23T07:13:38.548Z,11.57
2022-10-23T07:16:14.917Z,11.61
2022-10-23T07:18:42.455Z,11.61
2022-10-23T07:21:10.001Z,11.70
2022-10-23T07:23:37.620Z,11.67
2022-10-23T07:26:10.401Z,11.68
2022-10-23T07:28:38.900Z,11.71
2022-10-23T07:31:05.910Z,11.77
2022-10-23T07:33:33.159Z,11.81
2022-10-23T07:36:02.611Z,11.84
2022-10-23T07:38:32.031Z,11.90
2022-10-23T07:41:02.715Z,11.96
2022-10-23T07:46:02.946Z,12.07
2022-10-23T07:48:30.429Z,12.13
2022-10-23T07:51:01.399Z,12.16
2022-10-23T07:53:28.905Z,12.14
2022-10-23T07:55:58.093Z,12.26
2022-10-23T07:58:26.808Z,12.30
2022-10-23T08:01:04.137Z,12.33
2022-10-23T08:03:34.206Z,12.37
2022-10-23T08:06:01.822Z,12.44
2022-10-23T08:08:28.835Z,12.48
2022-10-23T08:10:56.220Z,12.48
2022-10-23T08:13:23.621Z,12.56
2022-10-23T08:15:52.715Z,12.51
2022-10-23T08:18:19.918Z,12.61
2022-10-23T08:20:48.657Z,12.69
2022-10-23T08:23:18.892Z,12.73
2022-10-23T08:25:46.786Z,12.77
2022-10-23T08:28:15.662Z,12.81
2022-10-23T08:30:42.796Z,12.86
2022-10-23T08:33:09.904Z,12.89
2022-10-23T08:35:37.741Z,12.88
2022-10-23T08:38:05.701Z,12.92
2022-10-23T08:40:34.864Z,13.03
2022-10-23T08:43:10.769Z,13.05
2022-10-23T08:45:47.568Z,13.04
2022-10-23T08:48:35.504Z,13.08
2022-10-23T08:51:29.290Z,13.08
2022-10-23T08:54:01.518Z,13.15
2022-10-23T08:56:37.813Z,13.18
2022-10-23T08:59:34.321Z,13.20
2022-10-23T09:02:13.261Z,13.27
2022-10-23T09:04:42.522Z,13.30
2022-10-23T09:07:24.538Z,13.42
2022-10-23T09:10:13.263Z,13.49
2022-10-23T09:12:41.727Z,13.56
2022-10-23T09:15:20.033Z,13.65
2022-10-23T09:17:48.095Z,13.68
2022-10-23T09:20:35.246Z,13.72
2022-10-23T09:23:07.773Z,13.76
2022-10-23T09:25:38.704Z,13.81
2022-10-23T09:28:06.027Z,13.88
2022-10-23T09:30:38.636Z,13.92
2022-10-23T09:33:19.813Z,13.91
2022-10-23T09:36:05.860Z,13.93
2022-10-23T09:38:34.604Z,13.93
2022-10-23T09:41:17.213Z,13.93
2022-10-23T09:43:44.258Z,13.96
2022-10-23T09:46:12.059Z,13.92
2022-10-23T09:48:42.134Z,13.87
2022-10-23T09:51:19.443Z,13.91
2022-10-23T09:53:53.697Z,13.92
2022-10-23T09:56:26.200Z,13.91
2022-10-23T09:59:15.772Z,13.89
2022-10-23T10:02:03.976Z,13.91
2022-10-23T10:04:40.487Z,13.94
2022-10-23T10:07:22.829Z,13.97
2022-10-23T10:09:50.330Z,13.99
2022-10-23T10:12:35.750Z,14.06
2022-10-23T10:15:22.710Z,14.08
2022-10-23T10:18:07.116Z,14.12
2022-10-23T10:20:56.692Z,14.17
2022-10-23T10:23:36.891Z,14.20
2022-10-23T10:26:06.508Z,14.31
2022-10-23T10:28:45.611Z,14.34
2022-10-23T10:31:37.532Z,14.36
2022-10-23T10:34:30.498Z,14.37
2022-10-23T10:37:06.037Z,14.40
2022-10-23T10:39:41.943Z,14.41
2022-10-23T10:42:39.610Z,14.45
2022-10-23T10:45:24.517Z,14.46
2022-10-23T10:48:03.253Z,14.48
2022-10-23T10:50:45.399Z,14.49
2022-10-23T10:53:22.260Z,14.55
2022-10-23T10:55:53.493Z,14.56
2022-10-23T10:58:30.507Z,14.54
2022-10-23T11:01:01.831Z,14.59
2022-10-23T11:03:46.231Z,14.59
2022-10-23T11:06:18.773Z,14.57
2022-10-23T11:08:56.541Z,14.64
2022-10-23T11:11:37.603Z,14.65
2022-10-23T11:14:04.695Z,14.72
2022-10-23T11:16:37.530Z,14.76
2022-10-23T11:19:11.362Z,14.80
2022-10-23T11:22:09.879Z,14.85
2022-10-23T11:25:02.595Z,14.85
2022-10-23T11:27:53.753Z,14.85
2022-10-23T11:31:07.016Z,14.88
2022-10-23T11:33:55.081Z,14.93
2022-10-23T11:36:43.584Z,14.98
2022-10-23T11:39:39.273Z,15.10
2022-10-23T11:42:06.258Z,15.18
2022-10-23T11:44:46.284Z,15.29
2022-10-23T11:47:38.945Z,15.40
2022-10-23T11:50:06.809Z,15.49
2022-10-23T11:52:45.461Z,15.61
2022-10-23T11:55:19.013Z,15.74
2022-10-23T11:58:10.385Z,15.82
2022-10-23T12:00:51.869Z,15.93
2022-10-23T12:03:24.382Z,15.98
2022-10-23T12:06:01.458Z,16.05
2022-10-23T12:08:32.418Z,16.06
2022-10-23T12:11:00.395Z,16.14
2022-10-23T12:13:36.319Z,16.18
2022-10-23T12:16:05.859Z,16.16
2022-10-23T12:18:33.474Z,16.21
2022-10-23T12:21:03.255Z,16.22
2022-10-23T12:23:49.297Z,16.24
2022-10-23T12:26:45.771Z,16.27
2022-10-23T12:29:28.320Z,16.29
2022-10-23T12:32:04.299Z,16.30
2022-10-23T12:34:53.399Z,16.35
2022-10-23T12:37:49.364Z,16.37
2022-10-23T12:40:16.486Z,16.36
2022-10-23T12:42:52.741Z,16.41
2022-10-23T12:45:24.654Z,16.32
2022-10-23T12:47:52.335Z,16.39
2022-10-23T12:50:25.122Z,16.36
2022-10-23T12:53:01.629Z,16.38
2022-10-23T12:55:51.515Z,16.40
2022-10-23T12:58:24.399Z,16.46
2022-10-23T13:00:54.353Z,16.48
2022-10-23T13:03:24.375Z,16.51
2022-10-23T13:05:54.128Z,16.49
2022-10-23T13:08:23.043Z,16.53
2022-10-23T13:10:50.616Z,16.58
2022-10-23T13:13:23.051Z,16.55
2022-10-23T13:15:50.510Z,16.57
2022-10-23T13:18:18.401Z,16.61
2022-10-23T13:20:51.197Z,16.63
2022-10-23T13:23:24.883Z,16.62
2022-10-23T13:25:55.967Z,16.67
2022-10-23T13:28:27.393Z,16.71
2022-10-23T13:31:06.365Z,16.72
2022-10-23T13:33:39.397Z,16.73
2022-10-23T13:36:16.558Z,16.70
2022-10-23T13:39:00.770Z,16.73
2022-10-23T13:41:31.697Z,16.74
2022-10-23T13:43:58.711Z,16.74
2022-10-23T13:46:25.750Z,16.84
2022-10-23T13:48:53.241Z,16.91
2022-10-23T13:51:23.524Z,16.90
2022-10-23T13:53:51.495Z,16.97
2022-10-23T13:56:21.402Z,17.00
2022-10-23T13:58:49.283Z,17.02
2022-10-23T14:01:26.637Z,17.08
2022-10-23T14:03:54.909Z,17.09
2022-10-23T14:06:22.109Z,17.11
2022-10-23T14:08:49.187Z,17.15
2022-10-23T14:11:18.952Z,17.17
2022-10-23T14:13:47.703Z,17.16
2022-10-23T14:16:16.336Z,17.14
2022-10-23T14:18:44.052Z,17.13
2022-10-23T14:21:19.902Z,17.12
2022-10-23T14:23:47.925Z,17.11
2022-10-23T14:26:21.944Z,17.14
2022-10-23T14:28:51.473Z,17.15
2022-10-23T14:31:18.644Z,17.18
2022-10-23T14:33:46.325Z,17.25
2022-10-23T14:36:13.469Z,17.39
2022-10-23T14:38:40.638Z,17.47
2022-10-23T14:41:16.713Z,17.59
2022-10-23T14:43:44.122Z,17.58
2022-10-23T14:46:16.344Z,17.54
2022-10-23T14:48:46.144Z,17.44
2022-10-23T14:51:26.506Z,17.36
2022-10-23T14:54:00.728Z,17.30
2022-10-23T14:56:30.919Z,17.19
2022-10-23T14:59:03.054Z,17.12
2022-10-23T15:01:37.774Z,17.07
2022-10-23T15:04:05.233Z,17.01
2022-10-23T15:06:34.038Z,16.99
2022-10-23T15:09:02.911Z,17.00
2022-10-23T15:11:30.930Z,16.99
2022-10-23T15:14:00.790Z,16.95
2022-10-23T15:16:28.099Z,16.91
2022-10-23T15:18:55.092Z,16.80
2022-10-23T15:21:22.163Z,16.78
2022-10-23T15:23:49.254Z,16.71
2022-10-23T15:26:23.165Z,16.76
2022-10-23T15:28:55.293Z,16.74
2022-10-23T15:31:37.662Z,16.69
2022-10-23T15:34:05.719Z,16.62
2022-10-23T15:36:33.201Z,16.50
2022-10-23T15:39:00.937Z,16.53
2022-10-23T15:41:33.821Z,16.49
2022-10-23T15:44:03.090Z,16.48
2022-10-23T15:46:31.013Z,16.45
2022-10-23T15:48:58.128Z,16.41
2022-10-23T15:51:25.283Z,16.40
2022-10-23T15:53:52.490Z,16.38
2022-10-23T15:56:19.591Z,16.29
2022-10-23T15:58:46.881Z,16.30
2022-10-23T16:01:14.104Z,16.26
2022-10-23T16:03:41.609Z,16.28
2022-10-23T16:06:12.232Z,16.24
2022-10-23T16:08:39.777Z,16.26
2022-10-23T16:11:16.481Z,16.28
2022-10-23T16:13:44.054Z,16.27
2022-10-23T16:16:12.190Z,16.25
2022-10-23T16:18:40.049Z,16.24
2022-10-23T16:21:07.915Z,16.22
2022-10-23T16:23:34.950Z,16.15
2022-10-23T16:26:05.560Z,16.19
2022-10-23T16:28:33.064Z,16.17
2022-10-23T16:31:00.528Z,16.14
2022-10-23T16:33:27.713Z,16.16
2022-10-23T16:35:54.860Z,16.13
2022-10-23T16:38:22.148Z,16.17
2022-10-23T16:40:53.604Z,16.12
2022-10-23T16:43:20.770Z,16.07
2022-10-23T16:45:47.805Z,16.13
2022-10-23T16:48:14.956Z,16.09
2022-10-23T16:50:42.048Z,16.06
2022-10-23T16:53:09.147Z,15.99
2022-10-23T16:55:40.321Z,15.98
2022-10-23T16:58:07.342Z,16.04
2022-10-23T17:00:35.231Z,16.00
2022-10-23T17:03:04.358Z,16.04
2022-10-23T17:05:34.913Z,16.04
2022-10-23T17:08:01.995Z,16.07
2022-10-23T17:10:29.025Z,16.06
2022-10-23T17:12:56.033Z,16.08
2022-10-23T17:15:23.832Z,16.01
2022-10-23T17:17:50.975Z,16.05
2022-10-23T17:20:18.046Z,16.05
2022-10-23T17:22:45.069Z,15.98
2022-10-23T17:25:12.518Z,15.91
2022-10-23T17:27:39.598Z,15.90
2022-10-23T17:30:10.440Z,15.94
2022-10-23T17:32:39.546Z,15.86
2022-10-23T17:35:07.102Z,15.86
2022-10-23T17:37:34.330Z,15.85
2022-10-23T17:40:02.911Z,15.82
2022-10-23T17:42:30.510Z,15.79
2022-10-23T17:44:57.620Z,15.80
2022-10-23T17:47:24.665Z,15.80
2022-10-23T17:49:51.702Z,15.82
2022-10-23T17:52:18.796Z,15.82
2022-10-23T17:54:45.836Z,15.80
2022-10-23T17:57:12.932Z,15.80
2022-10-23T17:59:40.192Z,15.79
2022-10-23T18:02:07.357Z,15.80
2022-10-23T18:04:34.574Z,15.78
2022-10-23T18:07:04.453Z,15.82
2022-10-23T18:09:34.641Z,15.87
2022-10-23T18:12:04.849Z,15.90
2022-10-23T18:14:37.275Z,15.89
2022-10-23T18:17:04.666Z,15.91
2022-10-23T18:19:32.073Z,15.95
2022-10-23T18:21:59.272Z,15.97
2022-10-23T18:24:26.627Z,15.98
2022-10-23T18:26:53.625Z,16.03
2022-10-23T18:29:21.265Z,16.04
2022-10-23T18:31:48.964Z,16.03
2022-10-23T18:34:17.526Z,16.07
2022-10-23T18:36:44.983Z,16.09
2022-10-23T18:39:15.291Z,16.09
2022-10-23T18:41:44.491Z,16.06
2022-10-23T18:44:15.418Z,16.09
2022-10-23T18:46:42.823Z,16.10
2022-10-23T18:49:10.681Z,16.11
2022-10-23T18:51:37.988Z,16.14
2022-10-23T18:54:08.742Z,16.18
2022-10-23T18:56:36.036Z,16.19
2022-10-23T18:59:05.260Z,16.18
2022-10-23T19:01:34.286Z,16.17
2022-10-23T19:04:04.279Z,16.19
2022-10-23T19:06:35.467Z,16.22
2022-10-23T19:09:06.118Z,16.20
2022-10-23T19:11:33.149Z,16.18
2022-10-23T19:14:02.932Z,16.18
2022-10-23T19:16:38.310Z,16.15
2022-10-23T19:19:14.064Z,16.11
2022-10-23T19:21:42.197Z,16.08
2022-10-23T19:24:15.273Z,16.04
2022-10-23T19:26:43.568Z,15.94
2022-10-23T19:29:15.555Z,15.91
2022-10-23T19:31:48.731Z,15.88
2022-10-23T19:34:22.510Z,15.86
2022-10-23T19:36:50.857Z,15.89
2022-10-23T19:39:18.728Z,15.94
2022-10-23T19:41:46.150Z,15.95
2022-10-23T19:44:14.491Z,15.95
2022-10-23T19:46:41.619Z,15.92
2022-10-23T19:49:09.929Z,15.89
2022-10-23T19:51:37.606Z,15.77
2022-10-23T19:54:04.916Z,15.79
2022-10-23T19:56:31.935Z,15.74
2022-10-23T19:58:58.996Z,15.72
2022-10-23T20:01:26.145Z,15.67
2022-10-23T20:03:55.372Z,15.59
2022-10-23T20:06:25.812Z,15.61
2022-10-23T20:08:53.337Z,15.52
2022-10-23T20:11:23.889Z,15.50
2022-10-23T20:13:51.849Z,15.46
2022-10-23T20:16:24.816Z,15.41
2022-10-23T20:18:52.118Z,15.40
2022-10-23T20:21:19.453Z,15.35
2022-10-23T20:23:47.074Z,15.38
2022-10-23T20:26:16.836Z,15.33
2022-10-23T20:28:51.064Z,15.29
2022-10-23T20:31:19.997Z,15.27
2022-10-23T20:33:47.447Z,15.27
2022-10-23T20:36:27.749Z,15.26
2022-10-23T20:38:55.869Z,15.24
2022-10-23T20:41:25.995Z,15.22
2022-10-23T20:43:55.403Z,15.14
2022-10-23T20:46:25.418Z,15.13
2022-10-23T20:48:53.194Z,15.08
2022-10-23T20:51:22.170Z,15.00
2022-10-23T20:53:51.370Z,14.94
2022-10-23T20:56:31.832Z,14.87
2022-10-23T20:59:13.424Z,14.85
2022-10-23T21:01:42.799Z,14.83
2022-10-23T21:04:14.184Z,14.81
2022-10-23T21:07:04.517Z,14.78
2022-10-23T21:09:32.951Z,14.78
2022-10-23T21:12:00.720Z,14.77
2022-10-23T21:14:28.611Z,14.76
2022-10-23T21:16:55.599Z,14.73
2022-10-23T21:19:22.602Z,14.73
2022-10-23T21:21:49.655Z,14.69
2022-10-23T21:24:17.350Z,14.68
2022-10-23T21:26:45.179Z,14.67
2022-10-23T21:29:20.850Z,14.65
2022-10-23T21:31:52.747Z,14.61
2022-10-23T21:34:19.868Z,14.52
2022-10-23T21:39:34.402Z,14.54
2022-10-23T21:42:02.956Z,14.55
2022-10-23T21:44:30.738Z,14.56
2022-10-23T21:46:57.736Z,14.56
2022-10-23T21:49:24.722Z,14.56
2022-10-23T21:51:51.754Z,14.51
2022-10-23T21:54:18.764Z,14.54
2022-10-23T21:56:48.316Z,14.54
2022-10-23T21:59:18.356Z,14.52
2022-10-23T22:01:47.009Z,14.44
2022-10-23T22:04:17.194Z,14.51
2022-10-23T22:06:45.660Z,14.52
2022-10-23T22:09:16.294Z,14.53
2022-10-23T22:11:43.321Z,14.49
2022-10-23T22:14:10.619Z,14.51
2022-10-23T22:16:37.673Z,14.51
2022-10-23T22:19:04.794Z,14.53
2022-10-23T22:21:32.145Z,14.54
2022-10-23T22:24:01.446Z,14.55
2022-10-23T22:26:31.843Z,14.54
2022-10-23T22:29:01.856Z,14.51
2022-10-23T22:31:31.853Z,14.53
2022-10-23T22:34:13.060Z,14.53
2022-10-23T22:36:48.771Z,14.53
2022-10-23T22:39:15.975Z,14.51
2022-10-23T22:41:43.596Z,14.59
2022-10-23T22:44:11.941Z,14.56
2022-10-23T22:46:38.942Z,14.56
2022-10-23T22:51:39.637Z,14.57
2022-10-23T22:54:07.149Z,14.57
2022-10-23T22:56:34.855Z,14.56
2022-10-23T22:59:02.965Z,14.57
2022-10-23T23:01:32.115Z,14.57
2022-10-23T23:04:08.880Z,14.56
2022-10-23T23:06:47.898Z,14.54
2022-10-23T23:09:17.928Z,14.55
2022-10-23T23:11:51.584Z,14.54
2022-10-23T23:14:23.487Z,14.54
2022-10-23T23:16:54.461Z,14.52
2022-10-23T23:19:22.927Z,14.53
2022-10-23T23:21:50.650Z,14.51
2022-10-23T23:24:17.732Z,14.46
2022-10-23T23:26:44.728Z,14.46
2022-10-23T23:29:12.293Z,14.40
2022-10-23T23:31:39.444Z,14.33
2022-10-23T23:34:06.496Z,14.32
2022-10-23T23:36:36.761Z,14.28
2022-10-23T23:41:37.682Z,14.23
2022-10-23T23:44:04.881Z,14.21
2022-10-23T23:46:32.047Z,14.19
2022-10-23T23:48:59.046Z,14.21
2022-10-23T23:51:26.233Z,14.21
2022-10-23T23:53:53.506Z,14.27
2022-10-23T23:56:21.337Z,14.32
2022-10-23T23:58:48.563Z,14.37
